Time;durP1;ratioP1;P1;durP2;ratioP2;P2;SDS_P1;SDS_P2;PMS_P1;PMS_P2;Temp;Humidity;BMP_temperature;BMP_pressure;BME280_temperature;BME280_humidity;BME280_pressure;Samples;Min_cycle;Max_cycle;Signal;HPM_P1;HPM_P2
2024/02/27 00:02:05;;;;;;;25.03;18.80;;;7.60;99.90;;;;;;5031137;28;20198;-69
2024/02/27 00:04:32;;;;;;;25.40;19.40;;;7.60;99.90;;;;;;5032932;28;20202;-68
2024/02/27 00:06:58;;;;;;;26.60;18.70;;;7.60;99.90;;;;;;5033502;28;20441;-67
2024/02/27 00:09:24;;;;;;;24.40;18.47;;;7.60;99.90;;;;;;5031733;28;20505;-69
2024/02/27 00:11:50;;;;;;;25.43;19.57;;;7.70;99.90;;;;;;5033362;28;20230;-69
2024/02/27 00:14:16;;;;;;;25.30;19.37;;;7.60;99.90;;;;;;5033037;28;20429;-69
2024/02/27 00:16:42;;;;;;;24.70;18.13;;;7.60;99.90;;;;;;5034182;28;20258;-67
2024/02/27 00:19:07;;;;;;;26.17;19.30;;;7.70;99.90;;;;;;5034215;28;20182;-67
2024/02/27 00:21:33;;;;;;;24.97;18.27;;;7.60;99.90;;;;;;5033372;28;20551;-67
2024/02/27 00:23:59;;;;;;;25.10;19.50;;;7.60;99.90;;;;;;5034395;28;20186;-67
2024/02/27 00:26:25;;;;;;;25.37;18.70;;;7.50;99.90;;;;;;5034000;28;20475;-68
2024/02/27 00:28:51;;;;;;;23.63;17.50;;;7.50;99.90;;;;;;5033328;28;20182;-68
2024/02/27 00:31:17;;;;;;;24.80;17.70;;;7.60;99.90;;;;;;5033633;28;20471;-68
2024/02/27 00:33:42;;;;;;;27.57;19.40;;;7.50;99.90;;;;;;5033847;28;20185;-69
2024/02/27 00:36:08;;;;;;;23.00;18.13;;;7.50;99.90;;;;;;5033737;28;20175;-67
2024/02/27 00:38:34;;;;;;;22.47;16.77;;;7.50;99.90;;;;;;5031789;28;20193;-69
2024/02/27 00:41:02;;;;;;;24.53;17.67;;;7.50;99.90;;;;;;5034591;28;20182;-68
2024/02/27 00:43:28;;;;;;;26.33;18.97;;;7.50;99.90;;;;;;5033095;28;20190;-69
2024/02/27 00:45:54;;;;;;;26.30;19.20;;;7.50;99.90;;;;;;5034362;28;20428;-68
2024/02/27 00:48:20;;;;;;;25.93;19.43;;;7.50;99.90;;;;;;5033143;28;20449;-69
2024/02/27 00:50:47;;;;;;;26.53;18.93;;;7.50;99.90;;;;;;5033306;28;20479;-69
2024/02/27 00:53:13;;;;;;;28.80;19.37;;;7.50;99.90;;;;;;5033372;28;20268;-68
2024/02/27 00:55:38;;;;;;;24.57;17.80;;;7.50;99.90;;;;;;5033482;28;20435;-69
2024/02/27 00:58:04;;;;;;;23.57;18.10;;;7.50;99.90;;;;;;5032447;28;20446;-69
2024/02/27 01:00:30;;;;;;;25.90;18.70;;;7.50;99.90;;;;;;5033097;28;20248;-67
2024/02/27 01:02:56;;;;;;;25.27;18.77;;;7.50;99.90;;;;;;5033600;28;20641;-68
2024/02/27 01:05:21;;;;;;;24.80;19.73;;;7.50;99.90;;;;;;5033097;28;20193;-67
2024/02/27 01:07:47;;;;;;;25.70;18.23;;;7.50;99.90;;;;;;5033636;28;20474;-67
2024/02/27 01:10:13;;;;;;;24.43;17.70;;;7.40;99.90;;;;;;5033551;28;20186;-68
2024/02/27 01:12:39;;;;;;;27.77;19.40;;;7.40;99.90;;;;;;5033276;28;20237;-68
2024/02/27 01:15:05;;;;;;;27.07;19.27;;;7.50;99.90;;;;;;5034048;28;20217;-67
2024/02/27 01:17:30;;;;;;;25.30;18.23;;;7.50;99.90;;;;;;5032641;28;20198;-68
2024/02/27 01:19:56;;;;;;;21.70;16.63;;;7.40;99.90;;;;;;5033376;28;20419;-68
2024/02/27 01:22:29;;;;;;;26.50;18.47;;;7.40;99.90;;;;;;5036262;28;20196;-68
2024/02/27 01:24:56;;;;;;;25.73;18.40;;;7.40;99.90;;;;;;5037493;28;20594;-68
2024/02/27 01:27:22;;;;;;;23.90;17.90;;;7.50;99.90;;;;;;5035708;28;20813;-67
2024/02/27 01:29:48;;;;;;;27.60;19.70;;;7.50;99.90;;;;;;5037739;28;20432;-67
2024/02/27 01:32:13;;;;;;;25.17;18.63;;;7.50;99.90;;;;;;5034886;28;20479;-68
2024/02/27 01:34:39;;;;;;;24.10;17.73;;;7.50;99.90;;;;;;5036617;28;20193;-69
2024/02/27 01:37:05;;;;;;;23.17;17.73;;;7.40;99.90;;;;;;5036855;28;20243;-69
2024/02/27 01:39:30;;;;;;;23.23;17.93;;;7.50;99.90;;;;;;5036505;28;20425;-68
2024/02/27 01:41:56;;;;;;;26.13;18.10;;;7.50;99.90;;;;;;5036558;28;20219;-68
2024/02/27 01:44:22;;;;;;;23.90;17.33;;;7.50;99.90;;;;;;5036081;28;20197;-68
2024/02/27 01:46:48;;;;;;;26.77;18.63;;;7.50;99.90;;;;;;5037128;28;20236;-67
2024/02/27 01:49:14;;;;;;;24.27;17.90;;;7.50;99.90;;;;;;5036172;28;20201;-69
2024/02/27 01:51:45;;;;;;;26.90;18.63;;;7.50;99.90;;;;;;5036861;28;20475;-68
2024/02/27 01:54:13;;;;;;;23.17;16.90;;;7.50;99.90;;;;;;5036385;28;20425;-68
2024/02/27 01:56:40;;;;;;;26.23;18.23;;;7.50;99.90;;;;;;5036429;28;20424;-70
2024/02/27 01:59:08;;;;;;;24.53;18.10;;;7.40;99.90;;;;;;5036611;28;20914;-69
2024/02/27 02:01:35;;;;;;;25.83;18.10;;;7.50;99.90;;;;;;5035715;28;20783;-68
2024/02/27 02:04:02;;;;;;;26.00;18.37;;;7.50;99.90;;;;;;5036670;28;20533;-69
2024/02/27 02:06:28;;;;;;;25.13;18.03;;;7.50;99.90;;;;;;5018919;28;20906;-69
2024/02/27 02:08:54;;;;;;;24.80;18.07;;;7.50;99.90;;;;;;5032369;28;20888;-68
2024/02/27 02:11:20;;;;;;;24.77;18.20;;;7.50;99.90;;;;;;5033084;28;20858;-67
2024/02/27 02:13:47;;;;;;;22.57;17.70;;;7.50;99.90;;;;;;5036956;28;20332;-68
2024/02/27 02:16:13;;;;;;;23.23;17.10;;;7.50;99.90;;;;;;5034591;28;20440;-69
2024/02/27 02:18:38;;;;;;;26.27;18.80;;;7.50;99.90;;;;;;5034837;28;20530;-67
2024/02/27 02:21:04;;;;;;;23.23;17.70;;;7.40;99.90;;;;;;5035952;28;21065;-67
2024/02/27 02:23:30;;;;;;;25.40;17.90;;;7.40;99.90;;;;;;5036461;28;20961;-67
2024/02/27 02:25:58;;;;;;;26.70;17.97;;;7.40;99.90;;;;;;5035350;28;20267;-68
2024/02/27 02:28:24;;;;;;;25.30;17.60;;;7.50;99.90;;;;;;5034986;28;20181;-68
2024/02/27 02:30:49;;;;;;;25.23;18.70;;;7.50;99.90;;;;;;5036018;28;20533;-68
2024/02/27 02:33:15;;;;;;;25.20;17.63;;;7.50;99.90;;;;;;5034581;28;20457;-67
2024/02/27 02:35:44;;;;;;;25.07;17.80;;;7.50;99.90;;;;;;5035309;28;20181;-69
2024/02/27 02:38:10;;;;;;;26.83;18.30;;;7.50;99.90;;;;;;5035188;28;20204;-67
2024/02/27 02:40:35;;;;;;;25.50;17.17;;;7.50;99.90;;;;;;5035794;28;20427;-67
2024/02/27 02:43:01;;;;;;;23.60;17.20;;;7.50;99.90;;;;;;5035612;28;21017;-67
2024/02/27 02:45:27;;;;;;;23.37;17.03;;;7.50;99.90;;;;;;5034790;28;20633;-68
2024/02/27 02:47:53;;;;;;;24.40;18.53;;;7.40;99.90;;;;;;5035494;28;20256;-67
2024/02/27 02:50:18;;;;;;;23.10;17.73;;;7.40;99.90;;;;;;5034589;28;20425;-68
2024/02/27 02:52:44;;;;;;;25.20;17.17;;;7.30;99.90;;;;;;5035483;28;20210;-67
2024/02/27 02:55:10;;;;;;;28.20;19.30;;;7.30;99.90;;;;;;5034971;28;20696;-69
2024/02/27 02:57:36;;;;;;;26.00;18.10;;;7.40;99.90;;;;;;5036175;28;20189;-67
2024/02/27 03:00:04;;;;;;;24.43;18.20;;;7.30;99.90;;;;;;5035611;28;20247;-69
2024/02/27 03:02:30;;;;;;;24.53;17.60;;;7.40;99.90;;;;;;5035605;28;20429;-69
2024/02/27 03:04:57;;;;;;;22.93;16.93;;;7.40;99.90;;;;;;5034311;28;20433;-69
2024/02/27 03:07:22;;;;;;;24.83;17.53;;;7.40;99.90;;;;;;5034487;28;20614;-68
2024/02/27 03:09:48;;;;;;;24.43;17.63;;;7.40;99.90;;;;;;5035484;28;20523;-69
2024/02/27 03:12:14;;;;;;;29.20;18.10;;;7.40;99.90;;;;;;5033909;28;20212;-68
2024/02/27 03:14:45;;;;;;;23.83;17.80;;;7.40;99.90;;;;;;5035982;28;20717;-69
2024/02/27 03:17:15;;;;;;;25.00;17.00;;;7.40;99.90;;;;;;5034217;28;20543;-68
2024/02/27 03:19:41;;;;;;;25.13;17.70;;;7.30;99.90;;;;;;5035426;28;20429;-68
2024/02/27 03:22:09;;;;;;;22.77;16.73;;;7.30;99.90;;;;;;5033912;28;20529;-67
2024/02/27 03:24:38;;;;;;;21.47;16.43;;;7.30;99.90;;;;;;5035599;28;20518;-67
2024/02/27 03:27:04;;;;;;;22.47;16.33;;;7.30;99.90;;;;;;5034256;28;20428;-68
2024/02/27 03:29:30;;;;;;;24.17;16.90;;;7.40;99.90;;;;;;5035820;28;20430;-69
2024/02/27 03:31:57;;;;;;;25.60;17.83;;;7.40;99.90;;;;;;5032817;28;20221;-68
2024/02/27 03:34:25;;;;;;;23.60;15.37;;;7.30;99.90;;;;;;5034345;28;20447;-69
2024/02/27 03:36:50;;;;;;;26.40;17.97;;;7.30;99.90;;;;;;5034922;28;20420;-69
2024/02/27 03:39:16;;;;;;;23.43;17.27;;;7.30;99.90;;;;;;5034824;28;21005;-69
2024/02/27 03:41:42;;;;;;;23.77;17.83;;;7.30;99.90;;;;;;5035458;28;20178;-69
2024/02/27 03:44:07;;;;;;;25.30;15.73;;;7.30;99.90;;;;;;5033413;28;20525;-69
2024/02/27 03:46:33;;;;;;;21.73;16.63;;;7.30;99.90;;;;;;5033314;28;20190;-69
2024/02/27 03:48:59;;;;;;;24.30;17.10;;;7.30;99.90;;;;;;5034404;28;20225;-68
2024/02/27 03:51:24;;;;;;;28.33;17.83;;;7.30;99.90;;;;;;5032076;28;20280;-67
2024/02/27 03:53:50;;;;;;;25.63;17.70;;;7.30;99.90;;;;;;5034527;28;20182;-69
2024/02/27 03:56:16;;;;;;;23.40;17.00;;;7.20;99.90;;;;;;5033305;28;20774;-68
2024/02/27 03:58:41;;;;;;;23.17;16.80;;;7.20;99.90;;;;;;5034074;28;20178;-69
2024/02/27 04:01:07;;;;;;;25.20;18.17;;;7.20;99.90;;;;;;5033465;28;20524;-68
2024/02/27 04:03:33;;;;;;;23.53;16.10;;;7.20;99.90;;;;;;5033199;28;20194;-68
2024/02/27 04:05:58;;;;;;;26.47;18.20;;;7.10;99.90;;;;;;5033785;28;20189;-67
2024/02/27 04:08:24;;;;;;;24.77;17.10;;;7.20;99.90;;;;;;5033328;28;20225;-68
2024/02/27 04:10:50;;;;;;;21.33;15.77;;;7.20;99.90;;;;;;5034349;28;20715;-67
2024/02/27 04:13:15;;;;;;;25.93;17.50;;;7.20;99.90;;;;;;5033178;28;20181;-67
2024/02/27 04:15:42;;;;;;;20.53;15.10;;;7.20;99.90;;;;;;5033889;28;20189;-69
2024/02/27 04:18:08;;;;;;;24.40;17.63;;;7.20;99.90;;;;;;5033698;28;20170;-67
2024/02/27 04:20:33;;;;;;;25.20;18.00;;;7.20;99.90;;;;;;5033119;28;20433;-67
2024/02/27 04:22:59;;;;;;;23.90;16.57;;;7.20;99.90;;;;;;5033879;28;20563;-68
2024/02/27 04:25:25;;;;;;;21.67;15.90;;;7.20;99.90;;;;;;5033312;28;20244;-69
2024/02/27 04:27:50;;;;;;;24.33;17.20;;;7.20;99.90;;;;;;5033770;28;20289;-69
2024/02/27 04:30:16;;;;;;;22.60;16.67;;;7.20;99.90;;;;;;5032355;28;20264;-68
2024/02/27 04:32:43;;;;;;;24.17;18.10;;;7.20;99.90;;;;;;5033232;28;20210;-69
2024/02/27 04:35:09;;;;;;;25.03;17.77;;;7.20;99.90;;;;;;5032572;28;20261;-66
2024/02/27 04:37:35;;;;;;;26.23;17.90;;;7.20;99.90;;;;;;5031413;28;20524;-68
2024/02/27 04:40:01;;;;;;;25.67;18.67;;;7.20;99.90;;;;;;5032915;28;20185;-69
2024/02/27 04:42:26;;;;;;;21.27;16.30;;;7.10;99.90;;;;;;5032959;28;20229;-68
2024/02/27 04:44:52;;;;;;;22.07;16.13;;;7.10;99.90;;;;;;5034584;28;20537;-65
2024/02/27 04:47:18;;;;;;;24.50;17.20;;;7.10;99.90;;;;;;5033268;28;20243;-66
2024/02/27 04:49:43;;;;;;;24.90;17.80;;;7.10;99.90;;;;;;5033767;28;20260;-70
2024/02/27 04:52:10;;;;;;;24.80;16.63;;;7.10;99.90;;;;;;5032438;28;20659;-68
2024/02/27 04:54:36;;;;;;;25.03;18.20;;;7.10;99.90;;;;;;5034312;28;20185;-66
2024/02/27 04:57:01;;;;;;;22.60;16.47;;;7.10;99.90;;;;;;5036806;28;20921;-67
2024/02/27 04:59:27;;;;;;;24.57;17.37;;;7.10;99.90;;;;;;5038044;28;20260;-66
2024/02/27 05:01:53;;;;;;;23.60;17.00;;;7.10;99.90;;;;;;5036393;28;20209;-66
2024/02/27 05:04:18;;;;;;;23.67;16.50;;;7.20;99.90;;;;;;5037369;28;20185;-68
2024/02/27 05:06:44;;;;;;;23.30;17.30;;;7.10;99.90;;;;;;5037770;28;20892;-67
2024/02/27 05:09:10;;;;;;;26.73;17.47;;;7.10;99.90;;;;;;5037734;28;20190;-68
2024/02/27 05:11:36;;;;;;;22.10;16.67;;;7.10;99.90;;;;;;5037533;28;20213;-67
2024/02/27 05:14:02;;;;;;;24.70;17.10;;;7.10;99.90;;;;;;5037569;28;20344;-67
2024/02/27 05:16:27;;;;;;;25.13;17.27;;;7.10;99.90;;;;;;5036173;28;20436;-67
2024/02/27 05:18:53;;;;;;;24.17;17.10;;;7.10;99.90;;;;;;5036356;28;20456;-66
2024/02/27 05:21:21;;;;;;;29.40;19.27;;;7.10;99.90;;;;;;5036610;28;20669;-66
2024/02/27 05:23:47;;;;;;;25.77;18.80;;;7.10;99.90;;;;;;5038167;28;20182;-66
2024/02/27 05:26:14;;;;;;;27.10;17.93;;;7.10;99.90;;;;;;5037151;28;21310;-68
2024/02/27 05:28:40;;;;;;;26.17;16.90;;;7.10;99.90;;;;;;5037643;28;20722;-66
2024/02/27 05:31:27;;;;;;;23.83;17.10;;;7.10;99.90;;;;;;5036476;28;20460;-67
2024/02/27 05:33:57;;;;;;;22.77;16.30;;;7.10;99.90;;;;;;5037378;28;20240;-67
2024/02/27 05:36:24;;;;;;;22.80;15.93;;;7.10;99.90;;;;;;5037119;28;20441;-67
2024/02/27 05:38:50;;;;;;;24.27;16.83;;;7.10;99.90;;;;;;5037080;28;20429;-66
2024/02/27 05:41:20;;;;;;;26.50;18.40;;;7.10;99.90;;;;;;5036922;28;20432;-67
2024/02/27 05:43:47;;;;;;;25.67;18.50;;;7.10;99.90;;;;;;5037446;28;20432;-67
2024/02/27 05:46:13;;;;;;;25.90;18.27;;;7.10;99.90;;;;;;5034112;28;21755;-67
2024/02/27 05:48:42;;;;;;;24.83;18.37;;;7.10;99.90;;;;;;5035207;28;20444;-67
2024/02/27 05:51:09;;;;;;;25.13;19.10;;;7.10;99.90;;;;;;5033146;28;20268;-68
2024/02/27 05:53:35;;;;;;;28.00;18.83;;;7.10;99.90;;;;;;5033259;28;20447;-67
2024/02/27 05:56:01;;;;;;;28.73;19.00;;;7.10;99.90;;;;;;5032509;28;20456;-66
2024/02/27 05:58:27;;;;;;;25.40;17.57;;;7.10;99.90;;;;;;5032236;28;20482;-67
2024/02/27 06:00:54;;;;;;;24.40;17.43;;;7.10;99.90;;;;;;5034943;28;20425;-67
2024/02/27 06:03:21;;;;;;;26.83;18.63;;;7.10;99.90;;;;;;5036371;28;20490;-67
2024/02/27 06:05:47;;;;;;;28.53;18.10;;;7.10;99.90;;;;;;5037079;28;20627;-67
2024/02/27 06:08:13;;;;;;;27.83;18.00;;;7.00;99.90;;;;;;5034810;28;20457;-67
2024/02/27 06:10:39;;;;;;;23.30;16.50;;;7.00;99.90;;;;;;5037198;28;20806;-66
2024/02/27 06:13:05;;;;;;;28.60;18.13;;;7.00;99.90;;;;;;5034872;28;20623;-67
2024/02/27 06:15:31;;;;;;;31.20;19.10;;;7.00;99.90;;;;;;5034280;28;20591;-66
2024/02/27 06:17:56;;;;;;;25.97;18.00;;;7.00;99.90;;;;;;5035697;28;20181;-67
2024/02/27 06:23:06;;;;;;;28.60;18.80;;;7.00;99.90;;;;;;5035581;28;20196;-66
2024/02/27 06:25:32;;;;;;;27.73;19.00;;;6.90;99.90;;;;;;5034107;28;20428;-67
2024/02/27 06:27:58;;;;;;;27.20;18.80;;;7.00;99.90;;;;;;5033575;28;20183;-67
2024/02/27 06:30:23;;;;;;;25.93;18.60;;;7.00;99.90;;;;;;5036502;28;20244;-67
2024/02/27 06:32:49;;;;;;;27.27;18.87;;;6.90;99.90;;;;;;5036890;28;20564;-67
2024/02/27 06:35:15;;;;;;;26.57;18.67;;;7.00;99.90;;;;;;5034614;28;20177;-67
2024/02/27 06:37:43;;;;;;;26.80;17.90;;;7.00;99.90;;;;;;5036212;28;20182;-67
2024/02/27 06:40:09;;;;;;;28.03;18.60;;;7.00;99.90;;;;;;5035779;28;20228;-66
2024/02/27 06:42:38;;;;;;;28.57;19.17;;;6.90;99.90;;;;;;5034883;28;21070;-67
2024/02/27 06:45:04;;;;;;;27.73;19.60;;;7.00;99.90;;;;;;5035341;28;20945;-67
2024/02/27 06:47:30;;;;;;;31.30;20.80;;;7.00;99.90;;;;;;5032987;28;20460;-66
2024/02/27 06:49:58;;;;;;;28.80;19.97;;;7.00;99.90;;;;;;5034015;28;20428;-66
2024/02/27 06:52:24;;;;;;;28.90;18.90;;;6.90;99.90;;;;;;5035456;28;20218;-67
2024/02/27 06:54:50;;;;;;;25.17;18.73;;;6.90;99.90;;;;;;5035398;28;20520;-67
2024/02/27 06:57:16;;;;;;;30.90;21.53;;;7.00;99.90;;;;;;5032308;28;20519;-67
2024/02/27 06:59:41;;;;;;;29.80;20.33;;;7.00;99.90;;;;;;5034716;28;20187;-68
2024/02/27 07:02:07;;;;;;;25.77;18.00;;;7.00;99.90;;;;;;5034985;28;20185;-66
2024/02/27 07:04:33;;;;;;;29.37;19.57;;;7.00;99.90;;;;;;5035407;28;20186;-66
2024/02/27 07:07:00;;;;;;;27.43;19.30;;;7.00;99.90;;;;;;5035517;28;20251;-68
2024/02/27 07:09:26;;;;;;;31.13;19.30;;;7.00;99.90;;;;;;5034848;28;20499;-66
2024/02/27 07:11:51;;;;;;;29.47;20.67;;;7.00;99.90;;;;;;5035068;28;20484;-66
2024/02/27 07:14:17;;;;;;;29.60;19.57;;;7.00;99.90;;;;;;5031464;28;20186;-67
2024/02/27 07:16:44;;;;;;;31.20;19.17;;;7.00;99.90;;;;;;5033616;28;20281;-67
2024/02/27 07:19:10;;;;;;;26.70;19.97;;;7.00;99.90;;;;;;5031368;28;20294;-67
2024/02/27 07:21:35;;;;;;;30.47;20.40;;;7.00;99.90;;;;;;5031959;28;20497;-68
2024/02/27 07:24:01;;;;;;;28.73;20.90;;;7.00;99.90;;;;;;5031173;28;20774;-68
2024/02/27 07:26:27;;;;;;;28.10;19.60;;;7.00;99.90;;;;;;5033623;28;20181;-66
2024/02/27 07:28:52;;;;;;;29.67;20.27;;;7.00;99.90;;;;;;5031733;28;20220;-70
2024/02/27 07:31:20;;;;;;;31.43;20.77;;;7.00;99.90;;;;;;5030961;28;20214;-67
2024/02/27 07:33:46;;;;;;;32.77;21.57;;;7.10;99.90;;;;;;5032788;28;20230;-67
2024/02/27 07:36:12;;;;;;;32.73;21.23;;;7.00;99.90;;;;;;5035160;28;20457;-66
2024/02/27 07:38:38;;;;;;;32.33;22.40;;;7.00;99.90;;;;;;5034177;28;20828;-67
2024/02/27 07:41:03;;;;;;;32.43;21.57;;;7.00;99.90;;;;;;5033353;28;20421;-67
2024/02/27 07:43:29;;;;;;;31.13;20.30;;;7.00;99.90;;;;;;5033442;28;20958;-66
2024/02/27 07:45:55;;;;;;;28.97;19.37;;;7.00;99.90;;;;;;5034291;28;20712;-67
2024/02/27 07:48:21;;;;;;;28.87;19.53;;;7.00;99.90;;;;;;5033069;28;20210;-66
2024/02/27 07:50:47;;;;;;;29.63;20.10;;;7.00;99.90;;;;;;5033925;28;20435;-68
2024/02/27 07:53:12;;;;;;;30.63;20.00;;;7.00;99.90;;;;;;5033697;28;20186;-68
2024/02/27 07:55:41;;;;;;;31.17;20.27;;;7.00;99.90;;;;;;5033824;28;20849;-67
2024/02/27 07:58:09;;;;;;;26.83;19.73;;;7.00;99.90;;;;;;5033128;28;20563;-68
2024/02/27 08:00:35;;;;;;;31.17;22.13;;;7.00;99.90;;;;;;5034578;28;20429;-67
2024/02/27 08:03:01;;;;;;;37.77;21.60;;;7.00;99.90;;;;;;5033943;28;20797;-67
2024/02/27 08:05:28;;;;;;;34.60;24.40;;;7.00;99.90;;;;;;5034358;28;20246;-66
2024/02/27 08:07:54;;;;;;;34.10;23.10;;;7.00;99.90;;;;;;5033013;28;20508;-67
2024/02/27 08:10:20;;;;;;;32.73;23.27;;;6.90;99.90;;;;;;5034895;28;20424;-68
2024/02/27 08:12:47;;;;;;;34.33;22.10;;;6.90;99.90;;;;;;5032335;28;20490;-66
2024/02/27 08:15:13;;;;;;;35.43;23.57;;;7.00;99.90;;;;;;5035122;28;20895;-67
2024/02/27 08:17:39;;;;;;;31.73;22.70;;;6.90;99.90;;;;;;5034263;28;20443;-67
2024/02/27 08:20:06;;;;;;;35.00;23.43;;;6.90;99.90;;;;;;5034594;28;20308;-66
2024/02/27 08:22:32;;;;;;;34.90;22.40;;;6.90;99.90;;;;;;5033854;28;20469;-66
2024/02/27 08:24:57;;;;;;;33.50;22.97;;;6.90;99.90;;;;;;5034234;28;20479;-68
2024/02/27 08:27:23;;;;;;;33.40;22.73;;;6.80;99.90;;;;;;5033024;28;20528;-66
2024/02/27 08:29:49;;;;;;;37.63;23.10;;;6.90;99.90;;;;;;5033787;28;20185;-67
2024/02/27 08:32:14;;;;;;;34.13;22.53;;;6.80;99.90;;;;;;5036450;28;20236;-67
2024/02/27 08:34:40;;;;;;;37.37;22.83;;;6.80;99.90;;;;;;5037441;28;20196;-66
2024/02/27 08:37:06;;;;;;;35.40;23.77;;;6.80;99.90;;;;;;5038439;28;20192;-67
2024/02/27 08:39:32;;;;;;;35.43;22.93;;;6.80;99.90;;;;;;5038753;28;20192;-67
2024/02/27 08:41:58;;;;;;;36.67;23.83;;;6.80;99.90;;;;;;5036636;28;20220;-66
2024/02/27 08:44:23;;;;;;;40.37;25.27;;;6.80;99.90;;;;;;5037718;28;20445;-67
2024/02/27 08:46:51;;;;;;;34.60;21.67;;;6.80;99.90;;;;;;5038158;28;20554;-66
2024/02/27 08:49:17;;;;;;;34.07;23.40;;;6.80;99.90;;;;;;5037100;28;20221;-67
2024/02/27 08:51:44;;;;;;;30.80;21.47;;;6.80;99.90;;;;;;5037601;28;20533;-66
2024/02/27 08:54:10;;;;;;;31.33;21.67;;;6.80;99.90;;;;;;5021299;28;20538;-68
2024/02/27 08:56:39;;;;;;;30.40;20.97;;;6.80;99.90;;;;;;5035904;28;20429;-66
2024/02/27 08:59:06;;;;;;;31.70;20.87;;;6.80;99.90;;;;;;5036652;28;20428;-66
2024/02/27 09:01:32;;;;;;;31.37;21.27;;;6.80;99.90;;;;;;5035333;28;20498;-67
2024/02/27 09:03:57;;;;;;;32.60;20.80;;;6.80;99.90;;;;;;5036467;28;20837;-66
2024/02/27 09:06:23;;;;;;;29.13;19.53;;;6.80;99.90;;;;;;5036636;28;20467;-66
2024/02/27 09:08:49;;;;;;;27.73;18.80;;;6.80;99.90;;;;;;5037239;28;20186;-65
2024/02/27 09:11:15;;;;;;;31.03;21.77;;;6.80;99.90;;;;;;5037344;28;20221;-66
2024/02/27 09:13:40;;;;;;;27.30;20.77;;;6.80;99.90;;;;;;5037575;28;20297;-66
2024/02/27 09:16:06;;;;;;;29.10;20.63;;;6.80;99.90;;;;;;5038163;28;20189;-67
2024/02/27 09:18:32;;;;;;;31.40;21.43;;;6.70;99.90;;;;;;5036963;28;20182;-67
2024/02/27 09:21:00;;;;;;;31.20;20.67;;;6.80;99.90;;;;;;5037858;28;20949;-66
2024/02/27 09:23:26;;;;;;;28.33;21.17;;;6.80;99.90;;;;;;5037275;28;20792;-66
2024/02/27 09:25:51;;;;;;;30.00;20.90;;;6.80;99.90;;;;;;5036696;28;20439;-65
2024/02/27 09:28:17;;;;;;;31.10;21.87;;;6.80;99.90;;;;;;5037187;28;20363;-67
2024/02/27 09:30:43;;;;;;;29.40;20.00;;;6.80;99.90;;;;;;5036933;28;20182;-66
2024/02/27 09:33:08;;;;;;;27.90;19.50;;;6.90;99.90;;;;;;5037835;28;20188;-66
2024/02/27 09:35:34;;;;;;;29.73;19.50;;;6.90;99.90;;;;;;5036283;28;20206;-67
2024/02/27 09:38:00;;;;;;;31.90;19.97;;;6.80;99.90;;;;;;5037939;28;21002;-66
2024/02/27 09:40:26;;;;;;;28.97;20.00;;;6.90;99.90;;;;;;5037028;28;20506;-65
2024/02/27 09:42:56;;;;;;;27.53;19.30;;;6.90;99.90;;;;;;5036552;28;20174;-66
2024/02/27 09:45:25;;;;;;;27.83;19.03;;;6.90;99.90;;;;;;5036592;28;20179;-66
2024/02/27 09:47:53;;;;;;;32.03;18.70;;;6.90;99.90;;;;;;5036955;28;20447;-67
2024/02/27 09:50:20;;;;;;;26.40;18.60;;;6.90;99.90;;;;;;5036537;28;20523;-66
2024/02/27 09:52:50;;;;;;;33.60;19.90;;;6.90;99.90;;;;;;5036745;28;20468;-65
2024/02/27 09:55:20;;;;;;;29.03;20.10;;;6.90;99.90;;;;;;5036449;28;20425;-65
2024/02/27 09:57:50;;;;;;;28.43;20.23;;;6.90;99.90;;;;;;5036039;28;20938;-66
2024/02/27 10:00:19;;;;;;;27.73;19.87;;;6.90;99.90;;;;;;5036978;28;20428;-66
2024/02/27 10:02:50;;;;;;;31.80;19.93;;;6.90;99.90;;;;;;5036441;28;20986;-67
2024/02/27 10:05:18;;;;;;;26.30;18.90;;;7.00;99.90;;;;;;5036676;28;20874;-66
2024/02/27 10:07:47;;;;;;;29.53;19.83;;;7.00;99.90;;;;;;5035247;28;20486;-66
2024/02/27 10:10:13;;;;;;;27.53;18.53;;;7.00;99.90;;;;;;5036175;28;20520;-67
2024/02/27 10:12:38;;;;;;;27.07;17.90;;;7.00;99.90;;;;;;5034693;28;20923;-67
2024/02/27 10:15:05;;;;;;;26.63;18.77;;;7.00;99.90;;;;;;5037501;28;20182;-67
2024/02/27 10:17:33;;;;;;;27.40;19.90;;;7.00;99.90;;;;;;5036453;28;20239;-65
2024/02/27 10:20:00;;;;;;;27.40;18.70;;;7.00;99.90;;;;;;5036727;28;20436;-66
2024/02/27 10:22:26;;;;;;;28.90;19.17;;;6.90;99.90;;;;;;5036537;28;20450;-66
2024/02/27 10:25:06;;;;;;;28.47;19.97;;;7.00;99.90;;;;;;5036689;28;20424;-66
2024/02/27 10:27:33;;;;;;;28.07;19.20;;;6.90;99.90;;;;;;5036498;28;20704;-66
2024/02/27 10:30:00;;;;;;;27.50;18.50;;;7.00;99.90;;;;;;5036664;28;20428;-67
2024/02/27 10:32:30;;;;;;;29.33;18.53;;;7.00;99.90;;;;;;5035885;28;20477;-66
2024/02/27 10:34:56;;;;;;;28.13;19.03;;;7.00;99.90;;;;;;5035869;28;20437;-65
2024/02/27 10:37:24;;;;;;;25.53;17.87;;;7.00;99.90;;;;;;5036082;28;20448;-66
2024/02/27 10:39:51;;;;;;;27.27;18.33;;;7.00;99.90;;;;;;5035726;28;20193;-66
2024/02/27 10:42:17;;;;;;;28.17;19.47;;;7.10;99.90;;;;;;5036109;28;20436;-66
2024/02/27 10:44:42;;;;;;;25.70;18.30;;;7.10;99.90;;;;;;5033403;28;21044;-67
2024/02/27 10:47:10;;;;;;;25.00;17.70;;;7.10;99.90;;;;;;5035030;28;20429;-66
2024/02/27 10:49:36;;;;;;;27.03;19.00;;;7.10;99.90;;;;;;5035090;28;20439;-67
2024/02/27 10:52:02;;;;;;;26.03;18.17;;;7.10;99.90;;;;;;5036951;28;20471;-66
2024/02/27 10:54:29;;;;;;;26.03;18.13;;;7.10;99.90;;;;;;5034126;28;20299;-67
2024/02/27 10:56:57;;;;;;;28.50;18.57;;;7.10;99.90;;;;;;5036189;28;20433;-66
2024/02/27 10:59:27;;;;;;;25.53;17.30;;;7.20;99.90;;;;;;5034720;28;20439;-67
2024/02/27 11:01:56;;;;;;;24.50;16.40;;;7.10;99.90;;;;;;5034832;28;21147;-66
2024/02/27 11:04:23;;;;;;;25.73;17.67;;;7.10;99.90;;;;;;5035923;28;20439;-65
2024/02/27 11:06:50;;;;;;;22.73;17.30;;;7.20;99.90;;;;;;5033192;28;20978;-66
2024/02/27 11:09:25;;;;;;;23.07;17.33;;;7.20;99.90;;;;;;5035601;28;20543;-67
2024/02/27 11:11:57;;;;;;;23.03;16.77;;;7.20;99.90;;;;;;5035117;28;21060;-67
2024/02/27 11:14:26;;;;;;;23.33;17.23;;;7.30;99.90;;;;;;5035916;28;20432;-66
2024/02/27 11:17:00;;;;;;;25.20;17.37;;;7.30;99.90;;;;;;5035692;28;20432;-66
2024/02/27 11:19:29;;;;;;;21.93;16.87;;;7.30;99.90;;;;;;5035100;28;20441;-66
2024/02/27 11:21:55;;;;;;;24.37;18.20;;;7.30;99.90;;;;;;5034657;28;20425;-67
2024/02/27 11:24:21;;;;;;;24.47;17.60;;;7.30;99.90;;;;;;5035573;28;20442;-65
2024/02/27 11:26:47;;;;;;;25.17;18.90;;;7.50;99.90;;;;;;5034812;28;20870;-66
2024/02/27 11:29:14;;;;;;;27.83;19.37;;;7.50;99.90;;;;;;5034627;28;20445;-66
2024/02/27 11:31:41;;;;;;;24.07;18.80;;;7.60;99.90;;;;;;5034409;28;20476;-67
2024/02/27 11:34:07;;;;;;;25.00;18.07;;;7.70;99.90;;;;;;5034610;28;20433;-65
2024/02/27 11:36:33;;;;;;;23.97;18.80;;;7.80;99.90;;;;;;5032893;28;20534;-67
2024/02/27 11:38:59;;;;;;;23.70;18.30;;;7.90;99.90;;;;;;5035752;28;20451;-67
2024/02/27 11:41:26;;;;;;;24.40;19.20;;;7.90;99.90;;;;;;5034720;28;20480;-65
2024/02/27 11:43:55;;;;;;;26.87;18.40;;;8.00;99.90;;;;;;5035793;28;20463;-66
2024/02/27 11:46:27;;;;;;;24.87;18.23;;;8.10;99.90;;;;;;5034449;28;20447;-66
2024/02/27 11:48:57;;;;;;;23.07;17.83;;;8.30;99.90;;;;;;5035484;28;20834;-67
2024/02/27 11:51:36;;;;;;;26.20;20.70;;;8.40;99.90;;;;;;5034424;28;20472;-67
2024/02/27 11:54:10;;;;;;;22.90;17.90;;;8.60;99.90;;;;;;5035765;28;20432;-67
2024/02/27 11:56:40;;;;;;;21.70;18.43;;;8.70;99.90;;;;;;5033554;28;20929;-66
2024/02/27 11:59:06;;;;;;;23.20;18.80;;;8.80;99.90;;;;;;5034494;28;20426;-65
2024/02/27 12:01:32;;;;;;;24.73;19.00;;;8.80;99.90;;;;;;5034462;28;20787;-65
2024/02/27 12:03:57;;;;;;;26.20;20.13;;;8.80;99.90;;;;;;5035418;28;20436;-67
2024/02/27 12:06:23;;;;;;;25.70;18.67;;;8.80;99.90;;;;;;5033937;28;20221;-65
2024/02/27 12:08:50;;;;;;;26.17;20.67;;;8.90;99.90;;;;;;5034554;28;20651;-67
2024/02/27 12:11:19;;;;;;;24.23;20.27;;;8.90;99.90;;;;;;5034839;28;20209;-67
2024/02/27 12:13:48;;;;;;;25.77;19.97;;;8.80;99.90;;;;;;5033402;28;20494;-66
2024/02/27 12:16:24;;;;;;;25.37;20.20;;;8.90;99.90;;;;;;5033336;28;20467;-66
2024/02/27 12:18:51;;;;;;;28.27;20.03;;;8.80;99.90;;;;;;5034471;28;20618;-67
2024/02/27 12:21:30;;;;;;;26.10;20.93;;;8.80;99.90;;;;;;5034568;28;20791;-66
2024/02/27 12:24:09;;;;;;;23.20;19.83;;;8.70;99.90;;;;;;5034530;28;20435;-67
2024/02/27 12:26:35;;;;;;;25.47;20.00;;;8.70;99.90;;;;;;5032717;28;20432;-67
2024/02/27 12:29:00;;;;;;;26.97;20.23;;;8.70;99.90;;;;;;5034914;28;20772;-66
2024/02/27 12:31:26;;;;;;;29.67;23.17;;;8.70;99.90;;;;;;5032578;28;20758;-66
2024/02/27 12:33:52;;;;;;;28.07;21.63;;;8.80;99.90;;;;;;5034870;28;20184;-68
2024/02/27 12:36:21;;;;;;;28.07;22.57;;;8.90;99.90;;;;;;5033744;28;20632;-67